KEPH/EPH METAR and TAF weather

Enter ICAO airport designator
Station Type Date Time Source
KEPH METAR 2022/01/29 01:53 UTC NOAA

KEPH 290153Z AUTO 23006KT 10SM OVC018 M03/M06 A3046 RMK AO2 SLP333 T10281056


Station Type Date Time Source
KEPH Decoded METAR 2022/01/29 01:53 UTC NOAA

EPHRATA MUNICIPAL AIRPORT, WA, United States (KEPH) 47-18N 119-31W 383M
Jan 28, 2022 - 08:53 PM EST / 2022.01.29 0153 UTC
Wind: from the SW (230 degrees) at 7 MPH (6 KT):0
Visibility: 10 mile(s):0
Sky conditions: overcast
Temperature: 27.0 F (-2.8 C)
Windchill: 19 F (-7 C):1
Dew Point: 21.9 F (-5.6 C)
Relative Humidity: 81%
Pressure (altimeter): 30.46 in. Hg (1031 hPa)
ob: KEPH 290153Z AUTO 23006KT 10SM OVC018 M03/M06 A3046 RMK AO2 SLP333 T10281056
cycle: 2

Station Type Date Time Source
KEPH TAF UTC NOAA

Error!

Example: see airport list